Time;durP1;ratioP1;P1;durP2;ratioP2;P2;SDS_P1;SDS_P2;PMS_P1;PMS_P2;Temp;Humidity;BMP_temperature;BMP_pressure;BME280_temperature;BME280_humidity;BME280_pressure;Samples;Min_cycle;Max_cycle;Signal;HPM_P1;HPM_P2
2022/09/27 00:02:50;;;;;;;;;;;;;;;18.80;57.02;99033.80;2175172;81;50395;-78
2022/09/27 00:05:53;;;;;;;;;;;;;;;18.79;57.00;99024.95;2152369;81;50160;-77
2022/09/27 00:08:55;;;;;;;;;;;;;;;18.78;57.04;99027.34;2172358;82;50493;-77
2022/09/27 00:11:56;;;;;;;;;;;;;;;18.78;57.02;99021.98;2152851;81;50141;-77
2022/09/27 00:14:58;;;;;;;;;;;;;;;18.78;57.04;99011.27;2152520;81;51540;-77
2022/09/27 00:18:00;;;;;;;;;;;;;;;18.78;57.05;98999.70;2175183;82;50400;-77
2022/09/27 00:21:06;;;;;;;;;;;;;;;18.78;57.00;99003.23;2175223;82;50739;-77
2022/09/27 00:24:09;;;;;;;;;;;;;;;18.78;57.03;98991.17;2151137;82;51096;-77
2022/09/27 00:27:11;;;;;;;;;;;;;;;18.78;57.01;98991.67;2175129;80;50660;-77
2022/09/27 00:30:13;;;;;;;;;;;;;;;18.79;56.98;98986.63;2175292;80;50811;-77
2022/09/27 00:33:14;;;;;;;;;;;;;;;18.77;57.03;98989.52;2151880;81;50290;-77
2022/09/27 00:36:16;;;;;;;;;;;;;;;18.77;56.99;98985.50;2177194;80;50407;-77
2022/09/27 00:39:18;;;;;;;;;;;;;;;18.76;57.03;98990.58;2177244;81;51645;-77
2022/09/27 00:42:19;;;;;;;;;;;;;;;18.77;56.98;98980.67;2177138;80;51582;-78
2022/09/27 00:45:21;;;;;;;;;;;;;;;18.75;57.03;98987.58;2176911;81;51554;-77
2022/09/27 00:48:23;;;;;;;;;;;;;;;18.76;56.93;98978.52;2131368;81;50984;-77
2022/09/27 00:51:25;;;;;;;;;;;;;;;18.77;56.91;98969.95;2177242;81;50816;-77
2022/09/27 00:54:27;;;;;;;;;;;;;;;18.77;56.93;98968.61;2176588;81;50399;-77
2022/09/27 00:57:29;;;;;;;;;;;;;;;18.76;56.98;98963.78;2177045;80;52489;-77
2022/09/27 01:00:30;;;;;;;;;;;;;;;18.77;56.95;98961.91;2153327;81;51073;-77
2022/09/27 01:03:50;;;;;;;;;;;;;;;18.76;56.99;98955.74;2177181;81;51527;-77
2022/09/27 01:06:52;;;;;;;;;;;;;;;18.76;56.97;98949.57;2227757;80;51633;-77
2022/09/27 01:09:53;;;;;;;;;;;;;;;18.76;56.94;98952.25;2229097;80;51525;-76
2022/09/27 01:13:00;;;;;;;;;;;;;;;18.74;56.98;98944.39;2206478;80;50991;-77
2022/09/27 01:16:03;;;;;;;;;;;;;;;18.75;56.95;98941.19;2228746;79;50233;-77
2022/09/27 01:19:07;;;;;;;;;;;;;;;18.75;56.94;98929.13;2229090;80;51530;-77
2022/09/27 01:22:13;;;;;;;;;;;;;;;18.74;56.85;98926.17;2184440;79;50263;-77
2022/09/27 01:25:23;;;;;;;;;;;;;;;18.75;56.91;98925.11;2206521;80;49421;-77
2022/09/27 01:28:35;;;;;;;;;;;;;;;18.74;56.92;98924.30;2229132;80;51517;-77
2022/09/27 01:31:47;;;;;;;;;;;;;;;18.73;56.94;98924.02;2228464;79;50821;-77
2022/09/27 01:34:50;;;;;;;;;;;;;;;18.74;56.92;98917.59;2178486;80;50777;-77
2022/09/27 01:37:53;;;;;;;;;;;;;;;18.74;56.91;98914.92;2154330;81;49659;-76
2022/09/27 01:40:57;;;;;;;;;;;;;;;18.75;56.89;98913.05;2176440;81;50405;-77
2022/09/27 01:44:02;;;;;;;;;;;;;;;18.74;56.92;98909.56;2176789;81;50442;-76
2022/09/27 01:47:05;;;;;;;;;;;;;;;18.74;56.86;98904.20;2176864;81;51624;-76
2022/09/27 01:50:08;;;;;;;;;;;;;;;18.74;56.89;98900.19;2176936;81;51961;-76
2022/09/27 01:53:20;;;;;;;;;;;;;;;18.75;56.86;98902.34;2176884;80;50446;-76
2022/09/27 01:56:23;;;;;;;;;;;;;;;18.73;56.93;98895.88;2177043;80;50451;-77
2022/09/27 01:59:29;;;;;;;;;;;;;;;18.71;56.97;98891.27;2177095;81;50405;-77
2022/09/27 02:02:31;;;;;;;;;;;;;;;18.73;56.92;98886.50;2152604;81;49539;-77
2022/09/27 02:05:35;;;;;;;;;;;;;;;18.72;56.89;98881.64;2176983;81;51561;-77
2022/09/27 02:08:41;;;;;;;;;;;;;;;18.71;56.89;98871.98;2176841;79;51524;-77
2022/09/27 02:11:44;;;;;;;;;;;;;;;18.72;56.89;98868.25;2174298;80;50693;-78
2022/09/27 02:14:47;;;;;;;;;;;;;;;18.72;56.87;98862.08;2154209;81;51862;-77
2022/09/27 02:18:05;;;;;;;;;;;;;;;18.72;56.86;98859.40;2177191;81;52345;-77
2022/09/27 02:21:07;;;;;;;;;;;;;;;18.72;56.86;98856.72;2176524;81;51976;-76
2022/09/27 02:24:09;;;;;;;;;;;;;;;18.72;56.87;98849.49;2177023;80;50794;-76
2022/09/27 02:27:29;;;;;;;;;;;;;;;18.72;56.83;98845.47;2154208;81;49605;-76
2022/09/27 02:30:31;;;;;;;;;;;;;;;18.71;56.87;98839.83;2178484;81;50751;-77
2022/09/27 02:33:40;;;;;;;;;;;;;;;18.72;56.86;98838.78;2178412;80;51534;-77
2022/09/27 02:36:41;;;;;;;;;;;;;;;18.70;56.89;98830.17;2182473;79;51019;-77
2022/09/27 02:39:43;;;;;;;;;;;;;;;18.71;56.88;98832.33;2153632;81;50162;-77
2022/09/27 02:42:44;;;;;;;;;;;;;;;18.71;56.90;98828.31;2177540;81;51519;-76
2022/09/27 02:45:48;;;;;;;;;;;;;;;18.69;56.90;98824.50;2177529;81;50781;-76
2022/09/27 02:49:00;;;;;;;;;;;;;;;18.69;56.84;98815.12;2178924;81;51671;-77
2022/09/27 02:52:19;;;;;;;;;;;;;;;18.70;56.84;98814.60;2156769;81;50108;-77
2022/09/27 02:55:28;;;;;;;;;;;;;;;18.70;56.86;98813.26;2177431;80;51488;-77
2022/09/27 02:58:49;;;;;;;;;;;;;;;18.71;56.84;98813.57;2177359;80;51525;-77
2022/09/27 03:01:55;;;;;;;;;;;;;;;18.70;56.84;98806.56;2185149;80;51520;-77
2022/09/27 03:04:58;;;;;;;;;;;;;;;18.70;56.86;98812.77;2197977;79;50172;-77
2022/09/27 03:08:00;;;;;;;;;;;;;;;18.69;56.87;98799.58;2228825;79;50898;-77
2022/09/27 03:11:02;;;;;;;;;;;;;;;18.69;56.88;98799.58;2229355;80;50731;-77
2022/09/27 03:14:03;;;;;;;;;;;;;;;18.69;56.90;98805.75;2229161;80;51547;-77
2022/09/27 03:17:05;;;;;;;;;;;;;;;18.68;56.86;98800.64;2229289;80;51565;-77
2022/09/27 03:20:07;;;;;;;;;;;;;;;18.69;56.87;98802.27;2206913;80;50627;-77
2022/09/27 03:23:09;;;;;;;;;;;;;;;18.69;56.89;98796.91;2207081;80;51547;-77
2022/09/27 03:26:10;;;;;;;;;;;;;;;18.69;56.83;98786.19;2206668;80;51535;-77
2022/09/27 03:29:12;;;;;;;;;;;;;;;18.69;56.87;98786.19;2206659;80;50980;-77
2022/09/27 03:32:13;;;;;;;;;;;;;;;18.66;56.90;98787.99;2224236;80;50372;-77
2022/09/27 03:35:15;;;;;;;;;;;;;;;18.68;56.86;98779.20;2175382;81;50328;-77
2022/09/27 03:38:17;;;;;;;;;;;;;;;18.67;56.90;98777.56;2175150;80;50431;-76
2022/09/27 03:41:18;;;;;;;;;;;;;;;18.67;56.87;98774.87;2128340;82;50087;-76
2022/09/27 03:44:20;;;;;;;;;;;;;;;18.67;56.83;98774.34;2150258;82;50401;-76
2022/09/27 03:47:21;;;;;;;;;;;;;;;18.66;56.87;98771.92;2175074;82;50303;-77
2022/09/27 03:50:24;;;;;;;;;;;;;;;18.67;56.84;98773.54;2150326;81;51215;-76
2022/09/27 03:53:26;;;;;;;;;;;;;;;18.67;56.83;98772.20;2175020;82;51529;-77
2022/09/27 03:56:28;;;;;;;;;;;;;;;18.68;56.83;98777.87;2175113;82;51625;-77
2022/09/27 03:59:29;;;;;;;;;;;;;;;18.68;56.79;98767.16;2150508;81;50125;-77
2022/09/27 04:02:31;;;;;;;;;;;;;;;18.68;56.82;98768.49;2150275;82;49665;-77
2022/09/27 04:05:32;;;;;;;;;;;;;;;18.66;56.82;98764.69;2181162;80;50992;-77
2022/09/27 04:08:35;;;;;;;;;;;;;;;18.67;56.81;98762.30;2183240;80;50945;-77
2022/09/27 04:11:36;;;;;;;;;;;;;;;18.66;56.74;98754.50;2229216;80;50106;-77
2022/09/27 04:14:38;;;;;;;;;;;;;;;18.66;56.81;98756.66;2206563;80;50374;-77
2022/09/27 04:17:43;;;;;;;;;;;;;;;18.66;56.81;98747.81;2229056;80;50746;-77
2022/09/27 04:20:44;;;;;;;;;;;;;;;18.65;56.80;98751.02;2206522;80;49656;-76
2022/09/27 04:23:46;;;;;;;;;;;;;;;18.65;56.82;98741.64;2206922;80;50780;-77
2022/09/27 04:26:48;;;;;;;;;;;;;;;18.65;56.83;98745.66;2206487;80;51458;-77
2022/09/27 04:29:49;;;;;;;;;;;;;;;18.66;56.81;98746.47;2229152;80;50246;-77
2022/09/27 04:32:51;;;;;;;;;;;;;;;18.66;56.80;98746.47;2213549;80;50740;-77
2022/09/27 04:39:12;;;;;;;;;;;;;;;18.65;56.81;98745.66;2154480;81;22527;-77
2022/09/27 04:42:13;;;;;;;;;;;;;;;18.65;56.80;98747.50;2175219;82;50380;-78
2022/09/27 04:45:16;;;;;;;;;;;;;;;18.65;56.82;98742.14;2128463;80;49572;-77
2022/09/27 04:48:25;;;;;;;;;;;;;;;18.66;56.76;98746.47;2172560;81;22356;-77
2022/09/27 04:51:31;;;;;;;;;;;;;;;18.65;56.80;98751.52;2188552;81;51622;-77
2022/09/27 04:54:36;;;;;;;;;;;;;;;18.65;56.75;98746.16;2171616;81;22504;-77
2022/09/27 04:57:42;;;;;;;;;;;;;;;18.64;56.77;98741.86;2171080;81;50531;-77
2022/09/27 05:00:46;;;;;;;;;;;;;;;18.65;56.77;98751.52;2170373;81;50167;-76
2022/09/27 05:03:52;;;;;;;;;;;;;;;18.64;56.77;98745.88;2169563;81;22597;-77
2022/09/27 05:06:56;;;;;;;;;;;;;;;18.63;56.77;98745.06;2172954;82;22266;-76
2022/09/27 05:09:59;;;;;;;;;;;;;;;18.64;56.81;98744.53;2152838;81;51039;-76
2022/09/27 05:13:10;;;;;;;;;;;;;;;18.63;56.81;98745.59;2176187;80;22036;-76
2022/09/27 05:16:13;;;;;;;;;;;;;;;18.64;56.79;98747.22;2180820;80;22626;-77
2022/09/27 05:19:18;;;;;;;;;;;;;;;18.65;56.72;98747.50;2212704;79;51348;-77
2022/09/27 05:22:20;;;;;;;;;;;;;;;18.64;56.72;98745.88;2230395;80;22111;-77
2022/09/27 05:25:23;;;;;;;;;;;;;;;18.64;56.75;98746.69;2206861;80;50584;-77
2022/09/27 05:28:27;;;;;;;;;;;;;;;18.65;56.75;98738.13;2232093;79;50669;-77
2022/09/27 05:31:30;;;;;;;;;;;;;;;18.64;56.71;98744.53;2238644;77;50400;-77
2022/09/27 05:34:33;;;;;;;;;;;;;;;18.62;56.77;98742.08;2171745;80;52460;-77
2022/09/27 05:37:39;;;;;;;;;;;;;;;18.63;56.79;98749.61;2204216;80;22458;-77
2022/09/27 05:40:44;;;;;;;;;;;;;;;18.63;56.77;98745.59;2226820;80;22353;-78
2022/09/27 05:43:49;;;;;;;;;;;;;;;18.63;56.73;98750.42;2211864;80;22250;-77
2022/09/27 05:47:04;;;;;;;;;;;;;;;18.63;56.72;98754.97;2193360;79;22443;-77
2022/09/27 05:50:08;;;;;;;;;;;;;;;18.63;56.71;98748.27;2182058;80;50947;-77
2022/09/27 05:53:18;;;;;;;;;;;;;;;18.64;56.74;98753.91;2230176;79;22303;-77
2022/09/27 05:56:24;;;;;;;;;;;;;;;18.63;56.71;98750.95;2229718;79;22003;-78
2022/09/27 05:59:26;;;;;;;;;;;;;;;18.63;56.71;98754.97;2206420;80;22574;-76
2022/09/27 06:02:31;;;;;;;;;;;;;;;18.62;56.71;98743.41;2209137;79;22181;-77
2022/09/27 06:05:37;;;;;;;;;;;;;;;18.64;56.70;98744.53;2163216;81;50576;-76
2022/09/27 06:08:39;;;;;;;;;;;;;;;18.62;56.73;98742.08;2151708;82;52355;-77
2022/09/27 06:11:44;;;;;;;;;;;;;;;18.63;56.71;98746.94;2152376;82;49961;-77
2022/09/27 06:14:47;;;;;;;;;;;;;;;18.63;56.72;98745.59;2153112;82;22433;-76
2022/09/27 06:17:50;;;;;;;;;;;;;;;18.62;56.71;98742.61;2173296;82;21754;-77
2022/09/27 06:20:51;;;;;;;;;;;;;;;18.63;56.74;98740.23;2176269;82;50261;-77
2022/09/27 06:23:55;;;;;;;;;;;;;;;18.64;56.67;98737.84;2176433;82;50700;-77
2022/09/27 06:26:57;;;;;;;;;;;;;;;18.63;56.70;98739.71;2152440;82;51732;-77
2022/09/27 06:30:02;;;;;;;;;;;;;;;18.63;56.70;98743.73;2152484;82;51210;-77
2022/09/27 06:33:05;;;;;;;;;;;;;;;18.62;56.71;98739.92;2177943;80;51493;-78
2022/09/27 06:36:12;;;;;;;;;;;;;;;18.63;56.70;98739.71;2120591;82;50096;-77
2022/09/27 06:39:34;;;;;;;;;;;;;;;18.62;56.68;98729.21;2090545;83;21815;-77
2022/09/27 06:42:43;;;;;;;;;;;;;;;18.64;56.67;98736.50;2104969;84;22464;-77
2022/09/27 06:45:44;;;;;;;;;;;;;;;18.63;56.70;98744.25;2105749;82;21800;-77
2022/09/27 06:48:52;;;;;;;;;;;;;;;18.63;56.68;98742.91;2106493;83;50771;-77
2022/09/27 06:51:59;;;;;;;;;;;;;;;18.62;56.69;98746.09;2105708;83;23039;-77
2022/09/27 06:55:02;;;;;;;;;;;;;;;18.62;56.68;98746.09;2105704;83;22114;-77
2022/09/27 07:01:28;;;;;;;;;;;;;;;18.62;56.69;98739.92;2106207;83;22388;-77
2022/09/27 07:08:07;;;;;;;;;;;;;;;18.61;56.69;98745.00;2159915;82;22380;-77
2022/09/27 07:11:14;;;;;;;;;;;;;;;18.61;56.67;98746.34;2159125;82;22274;-77
2022/09/27 07:14:20;;;;;;;;;;;;;;;18.62;56.65;98746.62;2213377;79;22359;-77
2022/09/27 07:17:58;;;;;;;;;;;;;;;18.62;56.67;98745.28;2227852;79;21638;-77
2022/09/27 07:21:00;;;;;;;;;;;;;;;18.62;56.67;98743.94;2229895;80;50790;-76
2022/09/27 07:24:03;;;;;;;;;;;;;;;18.62;56.66;98746.09;2229652;80;50698;-77
2022/09/27 07:27:08;;;;;;;;;;;;;;;18.63;56.68;98752.30;2229619;80;50586;-77
2022/09/27 07:30:12;;;;;;;;;;;;;;;18.61;56.64;98752.51;2230250;80;21962;-77
2022/09/27 07:33:14;;;;;;;;;;;;;;;18.61;56.66;98757.86;2204457;80;50360;-77
2022/09/27 07:36:17;;;;;;;;;;;;;;;18.61;56.68;98761.08;2177383;81;50341;-77
2022/09/27 07:39:31;;;;;;;;;;;;;;;18.62;56.68;98759.48;2177613;80;50694;-77
2022/09/27 07:42:33;;;;;;;;;;;;;;;18.61;56.70;98753.04;2176487;81;21875;-77
2022/09/27 07:45:52;;;;;;;;;;;;;;;18.63;56.66;98749.61;2154235;81;51401;-77
2022/09/27 07:48:59;;;;;;;;;;;;;;;18.62;56.68;98746.62;2175537;81;22319;-77
2022/09/27 07:52:01;;;;;;;;;;;;;;;18.62;56.63;98751.45;2176039;81;22372;-77
2022/09/27 07:55:14;;;;;;;;;;;;;;;18.60;56.67;98744.19;2177691;80;50805;-77
2022/09/27 07:58:17;;;;;;;;;;;;;;;18.60;56.66;98752.23;2169773;80;21749;-77
2022/09/27 08:01:20;;;;;;;;;;;;;;;18.61;56.69;98751.70;2178087;80;51731;-78
2022/09/27 08:04:23;;;;;;;;;;;;;;;18.61;56.68;98749.02;2077382;82;50677;-76
2022/09/27 08:07:28;;;;;;;;;;;;;;;18.61;56.67;98753.04;2075980;85;50109;-77
2022/09/27 08:10:32;;;;;;;;;;;;;;;18.62;56.62;98751.98;2075167;85;21803;-78
2022/09/27 08:13:37;;;;;;;;;;;;;;;18.60;56.67;98759.42;2054337;85;50279;-77
2022/09/27 08:16:43;;;;;;;;;;;;;;;18.60;56.69;98762.10;2075708;84;21797;-77
2022/09/27 08:19:49;;;;;;;;;;;;;;;18.61;56.69;98754.38;2075955;85;22518;-77
2022/09/27 08:22:53;;;;;;;;;;;;;;;18.60;56.66;98762.10;2075728;85;51324;-77
2022/09/27 08:25:58;;;;;;;;;;;;;;;18.60;56.67;98761.60;2075431;85;50607;-78
2022/09/27 08:29:00;;;;;;;;;;;;;;;18.61;56.64;98765.09;2132417;82;21802;-77
2022/09/27 08:32:05;;;;;;;;;;;;;;;18.61;56.66;98759.20;2181085;80;22381;-77
2022/09/27 08:35:10;;;;;;;;;;;;;;;18.60;56.65;98762.10;2194743;80;51504;-77
2022/09/27 08:38:17;;;;;;;;;;;;;;;18.59;56.63;98758.61;2147698;81;50179;-77
2022/09/27 08:41:27;;;;;;;;;;;;;;;18.60;56.60;98765.63;2177797;80;50673;-77
2022/09/27 08:44:47;;;;;;;;;;;;;;;18.60;56.65;98763.44;2177260;79;50271;-77
2022/09/27 08:47:51;;;;;;;;;;;;;;;18.60;56.61;98760.77;2177836;80;50612;-77
2022/09/27 08:50:52;;;;;;;;;;;;;;;18.59;56.62;98766.64;2178112;80;49080;-78
2022/09/27 08:54:01;;;;;;;;;;;;;;;18.60;56.66;98767.45;2177831;80;50765;-77
2022/09/27 08:57:04;;;;;;;;;;;;;;;18.60;56.62;98772.81;2150129;81;51619;-78
2022/09/27 09:00:10;;;;;;;;;;;;;;;18.60;56.60;98769.64;2178446;80;50458;-78
2022/09/27 09:03:17;;;;;;;;;;;;;;;18.60;56.60;98770.14;2176861;80;50793;-77
2022/09/27 09:06:23;;;;;;;;;;;;;;;18.59;56.65;98773.87;2176347;80;50868;-78
2022/09/27 09:09:27;;;;;;;;;;;;;;;18.60;56.64;98771.47;2153190;82;50154;-78
2022/09/27 09:12:48;;;;;;;;;;;;;;;18.59;56.63;98767.17;2177361;82;50795;-78
2022/09/27 09:15:54;;;;;;;;;;;;;;;18.59;56.63;98773.34;2177247;82;50676;-78
2022/09/27 09:19:14;;;;;;;;;;;;;;;18.57;56.63;98762.03;2177697;80;50088;-78
2022/09/27 09:22:17;;;;;;;;;;;;;;;18.60;56.61;98764.78;2176937;82;50807;-78
2022/09/27 09:25:37;;;;;;;;;;;;;;;18.60;56.57;98763.44;2176166;80;50522;-77
2022/09/27 09:28:40;;;;;;;;;;;;;;;18.59;56.60;98754.59;2176297;82;50865;-77
2022/09/27 09:31:59;;;;;;;;;;;;;;;18.60;56.59;98763.44;2175507;80;50743;-77
2022/09/27 09:35:01;;;;;;;;;;;;;;;18.60;56.55;98760.77;2162748;81;51956;-78
2022/09/27 09:38:04;;;;;;;;;;;;;;;18.60;56.56;98761.60;2177847;80;50803;-78
2022/09/27 09:41:20;;;;;;;;;;;;;;;18.60;56.54;98760.27;2177849;80;51590;-77
2022/09/27 09:44:28;;;;;;;;;;;;;;;18.61;56.53;98763.75;2177814;80;50682;-78
2022/09/27 09:47:32;;;;;;;;;;;;;;;18.60;56.56;98762.10;2154861;81;49639;-78
2022/09/27 09:50:35;;;;;;;;;;;;;;;18.59;56.60;98760.48;2178974;81;51090;-77
2022/09/27 09:53:50;;;;;;;;;;;;;;;18.60;56.57;98759.42;2177508;80;50556;-77
2022/09/27 09:56:56;;;;;;;;;;;;;;;18.60;56.59;98754.06;2178849;80;50865;-77
2022/09/27 09:59:59;;;;;;;;;;;;;;;18.61;56.58;98759.73;2155520;81;49722;-78
2022/09/27 10:03:00;;;;;;;;;;;;;;;18.60;56.59;98756.74;2182924;80;51698;-77
2022/09/27 10:06:02;;;;;;;;;;;;;;;18.59;56.62;98754.59;2178345;80;50790;-78
2022/09/27 10:09:03;;;;;;;;;;;;;;;18.60;56.59;98746.03;2179582;81;50753;-78
2022/09/27 10:12:05;;;;;;;;;;;;;;;18.60;56.54;98755.41;2156115;81;49921;-78
2022/09/27 10:15:07;;;;;;;;;;;;;;;18.59;56.50;98740.39;2156190;80;50913;-77
2022/09/27 10:18:08;;;;;;;;;;;;;;;18.61;56.54;98736.97;2179666;80;50737;-78
2022/09/27 10:21:20;;;;;;;;;;;;;;;18.62;56.53;98742.61;2180719;81;50767;-77
2022/09/27 10:24:24;;;;;;;;;;;;;;;18.60;56.55;98754.06;2157008;81;50147;-78
2022/09/27 10:27:25;;;;;;;;;;;;;;;18.59;56.59;98746.56;2157979;81;51165;-78
2022/09/27 10:30:28;;;;;;;;;;;;;;;18.60;56.59;98750.05;2182507;79;50756;-76
2022/09/27 10:33:30;;;;;;;;;;;;;;;18.61;56.59;98739.64;2190393;80;50700;-76
2022/09/27 10:36:33;;;;;;;;;;;;;;;18.59;56.63;98735.03;2165111;81;50071;-76
2022/09/27 10:39:36;;;;;;;;;;;;;;;18.61;56.58;98738.30;2181631;81;50711;-76
2022/09/27 10:42:38;;;;;;;;;;;;;;;18.62;56.56;98739.92;2182347;80;51010;-76
2022/09/27 10:45:39;;;;;;;;;;;;;;;18.63;56.55;98730.33;2182281;79;50796;-76
2022/09/27 10:48:41;;;;;;;;;;;;;;;18.62;56.54;98732.70;2157183;81;50206;-77
2022/09/27 10:51:43;;;;;;;;;;;;;;;18.64;56.53;98727.13;2157578;81;50877;-77
2022/09/27 10:55:01;;;;;;;;;;;;;;;18.64;56.52;98724.45;2181069;80;51472;-76
2022/09/27 10:58:03;;;;;;;;;;;;;;;18.64;56.57;98717.22;2181264;81;50509;-75
2022/09/27 11:01:10;;;;;;;;;;;;;;;18.63;56.55;98721.48;2180910;80;50824;-75
2022/09/27 11:04:23;;;;;;;;;;;;;;;18.63;56.64;98722.83;2176363;80;51640;-75
2022/09/27 11:07:24;;;;;;;;;;;;;;;18.63;56.60;98718.81;2178121;80;51744;-76
2022/09/27 11:10:30;;;;;;;;;;;;;;;18.61;56.63;98716.88;2178307;80;50912;-76
2022/09/27 11:13:34;;;;;;;;;;;;;;;18.60;56.66;98713.89;2153890;81;50130;-76
2022/09/27 11:16:55;;;;;;;;;;;;;;;18.61;56.63;98712.86;2178154;80;51542;-76
2022/09/27 11:20:16;;;;;;;;;;;;;;;18.60;56.64;98718.75;2177636;79;52613;-76
2022/09/27 11:23:35;;;;;;;;;;;;;;;18.60;56.62;98712.05;2177702;81;50298;-76
2022/09/27 11:26:38;;;;;;;;;;;;;;;18.60;56.63;98721.92;2154090;81;50099;-76
2022/09/27 11:29:49;;;;;;;;;;;;;;;18.60;56.66;98720.08;2177658;80;50739;-76
2022/09/27 11:33:04;;;;;;;;;;;;;;;18.60;56.64;98723.27;2192368;79;50754;-76
2022/09/27 11:36:24;;;;;;;;;;;;;;;18.58;56.65;98716.00;2166277;80;50685;-77
2022/09/27 11:39:33;;;;;;;;;;;;;;;18.59;56.66;98716.28;2152446;81;49350;-76
2022/09/27 11:42:52;;;;;;;;;;;;;;;18.58;56.68;98724.04;2175082;80;50445;-76
2022/09/27 11:45:55;;;;;;;;;;;;;;;18.58;56.67;98720.83;2176116;80;50493;-76
2022/09/27 11:49:14;;;;;;;;;;;;;;;18.57;56.66;98719.70;2153030;80;49330;-75
2022/09/27 11:52:24;;;;;;;;;;;;;;;18.57;56.69;98731.77;2153886;81;49651;-76
2022/09/27 11:55:45;;;;;;;;;;;;;;;18.57;56.68;98758.02;2175287;80;50418;-76
2022/09/27 11:59:06;;;;;;;;;;;;;;;18.58;56.68;98764.22;2176164;81;50716;-76
2022/09/27 12:02:26;;;;;;;;;;;;;;;18.57;56.65;98767.39;2179094;80;50682;-75
2022/09/27 12:05:46;;;;;;;;;;;;;;;18.59;56.62;98773.87;2159650;81;50127;-76
2022/09/27 12:08:50;;;;;;;;;;;;;;;18.58;56.61;98781.63;2181858;81;51534;-76
2022/09/27 12:11:56;;;;;;;;;;;;;;;18.59;56.58;98777.89;2174435;81;50270;-76
2022/09/27 12:14:59;;;;;;;;;;;;;;;18.57;56.63;98780.78;2178002;80;51034;-76
2022/09/27 12:18:02;;;;;;;;;;;;;;;18.56;56.64;98784.52;2153311;81;52780;-76
2022/09/27 12:21:04;;;;;;;;;;;;;;;18.58;56.59;98781.63;2167869;80;50863;-76
2022/09/27 12:24:05;;;;;;;;;;;;;;;18.57;56.60;98787.48;2155607;81;51662;-76
2022/09/27 12:27:08;;;;;;;;;;;;;;;18.58;56.57;98784.30;2179549;81;50248;-76
2022/09/27 12:30:13;;;;;;;;;;;;;;;18.58;56.58;98783.77;2152833;81;50797;-76
2022/09/27 12:33:20;;;;;;;;;;;;;;;18.59;56.54;98788.61;2185724;80;50807;-76
2022/09/27 12:36:23;;;;;;;;;;;;;;;18.60;56.50;98795.58;2187080;80;51433;-76
2022/09/27 12:39:38;;;;;;;;;;;;;;;18.60;56.49;98791.06;2177003;80;51491;-76
2022/09/27 12:42:41;;;;;;;;;;;;;;;18.62;56.50;98793.50;2153088;81;52006;-76
2022/09/27 12:45:56;;;;;;;;;;;;;;;18.61;56.52;98793.22;2176765;81;51613;-76
2022/09/27 12:49:05;;;;;;;;;;;;;;;18.61;56.53;98781.16;2177007;81;50406;-76
2022/09/27 12:52:08;;;;;;;;;;;;;;;18.59;56.52;98781.91;2176954;80;50536;-76
2022/09/27 12:55:18;;;;;;;;;;;;;;;18.60;56.53;98788.89;2176624;81;50433;-76
2022/09/27 12:58:34;;;;;;;;;;;;;;;18.58;56.57;98789.66;2176994;80;50726;-75
2022/09/27 13:01:49;;;;;;;;;;;;;;;18.60;56.57;98794.24;2176816;81;50894;-76
2022/09/27 13:04:58;;;;;;;;;;;;;;;18.59;56.59;98791.28;2150857;81;52529;-76
2022/09/27 13:08:05;;;;;;;;;;;;;;;18.61;56.55;98785.18;2151506;80;51509;-76
2022/09/27 13:11:22;;;;;;;;;;;;;;;18.60;56.53;98788.39;2186803;81;50896;-76
2022/09/27 13:14:24;;;;;;;;;;;;;;;18.59;56.58;98799.31;2178815;81;51568;-76
2022/09/27 13:17:40;;;;;;;;;;;;;;;18.58;56.59;98805.20;2174957;82;51422;-76
2022/09/27 13:20:45;;;;;;;;;;;;;;;18.58;56.62;98804.39;2151764;81;49649;-76
2022/09/27 13:23:49;;;;;;;;;;;;;;;18.57;56.62;98812.11;2150846;81;22383;-76
2022/09/27 13:26:50;;;;;;;;;;;;;;;18.55;56.64;98804.83;2174882;80;51634;-76
2022/09/27 13:29:52;;;;;;;;;;;;;;;18.56;56.63;98805.14;2175007;81;50731;-76
2022/09/27 13:33:15;;;;;;;;;;;;;;;18.54;56.67;98809.37;2168524;80;49539;-76
2022/09/27 13:36:18;;;;;;;;;;;;;;;18.57;56.64;98809.44;2178680;80;22248;-77
2022/09/27 13:39:21;;;;;;;;;;;;;;;18.57;56.58;98804.89;2175206;81;50298;-78
2022/09/27 13:42:28;;;;;;;;;;;;;;;18.60;56.56;98811.66;2175200;82;51546;-77
2022/09/27 13:45:32;;;;;;;;;;;;;;;18.58;56.61;98815.92;2151499;81;51004;-77
2022/09/27 13:48:52;;;;;;;;;;;;;;;18.58;56.65;98816.45;2167918;80;51566;-77
2022/09/27 13:51:55;;;;;;;;;;;;;;;18.58;56.61;98823.95;2175114;80;51371;-77
2022/09/27 13:54:57;;;;;;;;;;;;;;;18.59;56.61;98818.06;2174591;81;52052;-77
2022/09/27 13:58:00;;;;;;;;;;;;;;;18.59;56.60;98816.20;2151734;81;52589;-77
2022/09/27 14:01:21;;;;;;;;;;;;;;;18.60;56.60;98815.67;2175294;81;50323;-77
2022/09/27 14:04:30;;;;;;;;;;;;;;;18.58;56.63;98821.80;2192520;80;51539;-77
2022/09/27 14:07:41;;;;;;;;;;;;;;;18.58;56.63;98823.95;2175233;82;51583;-77
2022/09/27 14:10:43;;;;;;;;;;;;;;;18.59;56.65;98826.10;2151623;82;52828;-77
2022/09/27 14:13:45;;;;;;;;;;;;;;;18.58;56.62;98825.82;2175192;82;50783;-76
2022/09/27 14:16:46;;;;;;;;;;;;;;;18.58;56.62;98823.14;2175176;82;50453;-77
2022/09/27 14:19:49;;;;;;;;;;;;;;;18.56;56.66;98826.56;2175333;82;51445;-77
2022/09/27 14:22:54;;;;;;;;;;;;;;;18.55;56.67;98828.44;2151474;82;50126;-77
2022/09/27 14:25:57;;;;;;;;;;;;;;;18.56;56.64;98834.59;2175155;82;50328;-77
2022/09/27 14:28:59;;;;;;;;;;;;;;;18.56;56.62;98839.95;2175327;82;51610;-77
2022/09/27 14:32:04;;;;;;;;;;;;;;;18.58;56.63;98847.25;2176375;80;51528;-77
2022/09/27 14:38:35;;;;;;;;;;;;;;;18.59;56.56;98844.33;2210638;80;22495;-77
2022/09/27 14:41:36;;;;;;;;;;;;;;;18.57;56.61;98861.14;2229487;80;50631;-77
2022/09/27 14:44:40;;;;;;;;;;;;;;;18.57;56.63;98854.44;2229114;80;51685;-77
2022/09/27 14:47:46;;;;;;;;;;;;;;;18.53;56.71;98863.18;2206479;80;51039;-77
2022/09/27 14:50:55;;;;;;;;;;;;;;;18.56;56.68;98858.70;2206988;80;50700;-77
2022/09/27 14:53:59;;;;;;;;;;;;;;;18.55;56.68;98866.42;2212378;80;50567;-77
2022/09/27 14:57:01;;;;;;;;;;;;;;;18.55;56.66;98871.28;2229304;79;50689;-76
2022/09/27 15:00:16;;;;;;;;;;;;;;;18.55;56.68;98878.48;2206715;80;49672;-77
2022/09/27 15:03:25;;;;;;;;;;;;;;;18.56;56.69;98878.80;2201485;80;50421;-76
2022/09/27 15:06:26;;;;;;;;;;;;;;;18.56;56.66;98883.63;2175523;81;50302;-77
2022/09/27 15:09:28;;;;;;;;;;;;;;;18.57;56.67;98889.79;2175444;82;50807;-77
2022/09/27 15:12:29;;;;;;;;;;;;;;;18.57;56.64;98887.11;2128534;82;50109;-77
2022/09/27 15:15:35;;;;;;;;;;;;;;;18.57;56.65;98885.77;2151257;81;51588;-77
2022/09/27 15:18:46;;;;;;;;;;;;;;;18.56;56.60;98889.51;2175270;82;52502;-77
2022/09/27 15:21:47;;;;;;;;;;;;;;;18.56;56.64;98893.53;2150559;81;50149;-77
2022/09/27 15:24:49;;;;;;;;;;;;;;;18.55;56.65;98895.39;2128271;82;52598;-77
2022/09/27 15:27:52;;;;;;;;;;;;;;;18.56;56.62;98897.55;2175251;82;51636;-77
2022/09/27 15:30:54;;;;;;;;;;;;;;;18.54;56.61;98899.09;2175338;80;50827;-77
2022/09/27 15:33:56;;;;;;;;;;;;;;;18.55;56.57;98901.25;2193819;80;50878;-77
2022/09/27 15:37:02;;;;;;;;;;;;;;;18.55;56.60;98895.39;2151943;82;49624;-77
2022/09/27 15:40:18;;;;;;;;;;;;;;;18.55;56.55;98906.11;2175164;81;22348;-77
2022/09/27 15:43:24;;;;;;;;;;;;;;;18.53;56.56;98905.51;2175181;80;50011;-77
2022/09/27 15:46:30;;;;;;;;;;;;;;;18.56;56.55;98906.92;2175208;81;50852;-77
2022/09/27 15:49:35;;;;;;;;;;;;;;;18.54;56.55;98911.15;2151429;81;51477;-77
2022/09/27 15:52:42;;;;;;;;;;;;;;;18.55;56.55;98915.48;2175488;82;50549;-78
2022/09/27 15:55:44;;;;;;;;;;;;;;;18.53;56.53;98913.55;2175103;82;50786;-77
2022/09/27 15:58:45;;;;;;;;;;;;;;;18.54;56.55;98923.73;2175371;82;50354;-77
2022/09/27 16:01:47;;;;;;;;;;;;;;;18.54;56.53;98917.03;2151870;81;51323;-77
2022/09/27 16:04:49;;;;;;;;;;;;;;;18.52;56.56;98928.48;2165256;80;51549;-77
2022/09/27 16:07:50;;;;;;;;;;;;;;;18.52;56.55;98933.31;2229316;80;51544;-77
2022/09/27 16:10:53;;;;;;;;;;;;;;;18.52;56.53;98927.14;2229310;80;51515;-77
2022/09/27 16:13:55;;;;;;;;;;;;;;;18.50;56.51;98924.71;2206655;80;51107;-77
2022/09/27 16:16:58;;;;;;;;;;;;;;;18.50;56.55;98932.75;2229162;80;50378;-76
2022/09/27 16:20:00;;;;;;;;;;;;;;;18.52;56.50;98936.52;2229075;79;50687;-77
2022/09/27 16:23:02;;;;;;;;;;;;;;;18.49;56.55;98923.05;2206819;80;50444;-77